Time;durP1;ratioP1;P1;durP2;ratioP2;P2;SDS_P1;SDS_P2;PMS_P1;PMS_P2;Temp;Humidity;BMP_temperature;BMP_pressure;BME280_temperature;BME280_humidity;BME280_pressure;Samples;Min_cycle;Max_cycle;Signal;HPM_P1;HPM_P2
2021/08/30 00:02:18;;;;;;;;;6.00;5.00;;;;;17.97;62.57;101712.31;5097668;27;45504;-88
2021/08/30 00:04:44;;;;;;;;;4.00;4.00;;;;;17.92;62.94;101707.00;5080570;27;45354;-88
2021/08/30 00:07:09;;;;;;;;;6.00;5.00;;;;;17.96;62.75;101708.78;5097861;27;48224;-87
2021/08/30 00:09:35;;;;;;;;;7.00;4.67;;;;;18.05;63.16;101727.44;5099458;27;45337;-89
2021/08/30 00:12:00;;;;;;;;;4.67;4.00;;;;;17.99;63.19;101715.88;5080907;27;45371;-88
2021/08/30 00:14:26;;;;;;;;;4.67;3.67;;;;;17.88;63.14;101703.44;5099868;27;45398;-90
2021/08/30 00:16:51;;;;;;;;;6.00;5.00;;;;;17.97;62.86;101715.00;5103781;27;47816;-88
2021/08/30 00:19:16;;;;;;;;;4.00;4.00;;;;;18.02;62.71;101724.75;5113134;27;45394;-90
2021/08/30 00:21:42;;;;;;;;;5.67;5.00;;;;;17.86;62.86;101699.91;5096168;27;45865;-90
2021/08/30 00:24:07;;;;;;;;;6.00;6.00;;;;;17.97;62.54;101718.53;5089820;27;45305;-90
2021/08/30 00:26:33;;;;;;;;;5.33;4.00;;;;;17.90;63.07;101708.75;5099210;27;47323;-91
2021/08/30 00:28:58;;;;;;;;;5.00;4.67;;;;;17.83;63.21;101702.53;5099219;27;45374;-89
2021/08/30 00:31:27;;;;;;;;;7.33;6.00;;;;;17.96;63.26;101730.06;5100325;27;45388;-88
2021/08/30 00:33:53;;;;;;;;;8.00;8.00;;;;;17.78;63.04;101691.00;5100504;27;45858;-89
2021/08/30 00:36:19;;;;;;;;;7.67;6.00;;;;;17.82;63.34;101693.69;5108178;27;45445;-86
2021/08/30 00:38:44;;;;;;;;;8.33;8.33;;;;;17.93;63.10;101699.03;5101375;27;45385;-89
2021/08/30 00:41:10;;;;;;;;;9.00;7.33;;;;;17.86;63.46;101686.59;5119133;27;45279;-89
2021/08/30 00:43:36;;;;;;;;;11.00;6.33;;;;;17.90;63.63;101688.38;5119915;27;44779;-89
2021/08/30 00:46:02;;;;;;;;;8.00;7.00;;;;;17.94;63.51;101690.16;5101644;27;45910;-88
2021/08/30 00:48:28;;;;;;;;;8.00;6.00;;;;;17.93;62.86;101687.50;5099329;27;45409;-90
2021/08/30 00:50:55;;;;;;;;;9.67;8.00;;;;;17.85;62.87;101674.19;5099671;27;45350;-89
2021/08/30 00:53:20;;;;;;;;;9.33;6.00;;;;;17.90;63.15;101683.06;5099644;27;45479;-89
2021/08/30 00:55:46;;;;;;;;;6.67;4.33;;;;;17.94;62.95;101682.19;5098393;27;47089;-89
2021/08/30 00:58:12;;;;;;;;;6.00;6.00;;;;;17.88;63.05;101682.16;5081280;27;45759;-89
2021/08/30 01:00:37;;;;;;;;;8.00;8.00;;;;;17.96;62.93;101679.50;5080940;27;45342;-90
2021/08/30 01:03:03;;;;;;;;;6.00;6.00;;;;;17.99;62.99;101686.63;5085237;27;45283;-89
2021/08/30 01:05:29;;;;;;;;;6.00;6.00;;;;;17.97;62.88;101685.72;5103070;27;46090;-88
2021/08/30 01:07:54;;;;;;;;;12.67;7.33;;;;;18.01;63.34;101701.72;5104855;27;45360;-89
2021/08/30 01:10:32;;;;;;;;;8.00;5.67;;;;;18.01;63.33;101691.06;5089111;27;45757;-89
2021/08/30 01:13:06;;;;;;;;;7.67;6.67;;;;;18.02;63.12;101697.28;5091276;27;44873;-88
2021/08/30 01:15:39;;;;;;;;;8.00;7.00;;;;;17.85;63.35;101666.22;5085230;27;46964;-89
2021/08/30 01:18:09;;;;;;;;;10.00;7.00;;;;;17.92;63.12;101683.94;5103600;27;45397;-89
2021/08/30 01:20:48;;;;;;;;;6.00;4.67;;;;;17.96;63.55;101692.81;5102327;27;45471;-89
2021/08/30 01:23:15;;;;;;;;;7.00;7.00;;;;;17.96;63.73;101691.94;5103794;27;45420;-90
2021/08/30 01:25:40;;;;;;;;;8.67;7.00;;;;;17.92;63.88;101691.03;5085445;27;48278;-89
2021/08/30 01:28:07;;;;;;;;;10.67;8.00;;;;;17.91;63.69;101682.19;5106874;27;45636;-88
2021/08/30 01:30:37;;;;;;;;;8.00;8.00;;;;;17.83;63.69;101675.94;5115435;27;45381;-88
2021/08/30 01:33:04;;;;;;;;;9.00;8.00;;;;;17.84;63.92;101680.38;5100462;27;44809;-88
2021/08/30 01:35:31;;;;;;;;;8.00;8.00;;;;;17.83;64.16;101678.59;5123748;27;45571;-85
2021/08/30 01:38:03;;;;;;;;;10.00;10.00;;;;;17.76;64.04;101666.19;5105728;27;44998;-88
2021/08/30 01:40:30;;;;;;;;;14.67;9.33;;;;;17.90;64.20;101690.13;5123568;27;44836;-89
2021/08/30 01:42:59;;;;;;;;;9.00;8.33;;;;;17.88;64.29;101690.16;5120440;27;45432;-89
2021/08/30 01:45:27;;;;;;;;;9.00;8.67;;;;;17.79;64.44;101675.06;5107873;27;47155;-90
2021/08/30 01:47:56;;;;;;;;;10.67;7.33;;;;;17.88;64.56;101678.63;5122870;27;44720;-88
2021/08/30 01:50:23;;;;;;;;;16.00;9.67;;;;;17.89;64.32;101675.97;5122201;27;45274;-89
2021/08/30 01:52:51;;;;;;;;;8.33;8.33;;;;;17.92;64.81;101681.28;5104532;27;44843;-90
2021/08/30 02:03:21;;;;;;;;;13.00;10.33;;;;;17.88;64.76;101662.66;5124137;27;44693;-88
2021/08/30 02:05:49;;;;;;;;;11.00;11.00;;;;;17.94;64.98;101682.19;5124228;27;45340;-87
2021/08/30 02:08:16;;;;;;;;;11.33;11.00;;;;;17.79;65.35;101650.22;5111707;27;45408;-90
2021/08/30 02:10:46;;;;;;;;;13.67;11.33;;;;;17.92;65.38;101667.09;5085674;27;45430;-89
2021/08/30 02:13:13;;;;;;;;;10.67;9.00;;;;;17.93;65.10;101671.53;5102338;27;45204;-89
2021/08/30 02:15:39;;;;;;;;;11.67;10.33;;;;;17.86;65.24;101656.44;5087292;27;48183;-90
2021/08/30 02:18:22;;;;;;;;;14.33;9.00;;;;;17.93;65.00;101677.75;5088693;27;45334;-89
2021/08/30 02:20:58;;;;;;;;;9.67;9.67;;;;;17.78;65.55;101651.13;5123495;27;45774;-90
2021/08/30 02:23:30;;;;;;;;;10.00;8.00;;;;;17.82;65.57;101660.88;5120107;27;45406;-90
2021/08/30 02:26:06;;;;;;;;;11.33;9.67;;;;;17.79;65.76;101656.44;5122283;27;45540;-89
2021/08/30 02:28:32;;;;;;;;;12.00;9.00;;;;;17.82;65.55;101658.22;5113998;27;45298;-90
2021/08/30 02:31:00;;;;;;;;;12.33;11.00;;;;;17.82;65.79;101652.91;5085655;27;45247;-91
2021/08/30 02:33:25;;;;;;;;;10.00;10.00;;;;;17.79;65.62;101650.22;5114731;27;44814;-88
2021/08/30 02:35:52;;;;;;;;;12.67;8.00;;;;;17.85;65.93;101662.66;5099662;27;47102;-90
2021/08/30 02:38:17;;;;;;;;;15.00;10.00;;;;;17.79;65.93;101652.88;5096668;27;44767;-90
2021/08/30 02:40:43;;;;;;;;;9.67;8.33;;;;;17.79;66.09;101652.88;5106582;27;45444;-90
2021/08/30 02:43:10;;;;;;;;;15.33;10.00;;;;;17.76;66.14;101648.47;5102740;27;45354;-89
2021/08/30 02:45:37;;;;;;;;;10.67;8.67;;;;;17.87;66.13;101661.78;5098038;27;45452;-90
2021/08/30 02:48:03;;;;;;;;;8.67;8.67;;;;;17.90;66.15;101667.09;5080516;27;45397;-90
2021/08/30 02:50:30;;;;;;;;;8.33;8.33;;;;;17.82;66.21;101653.78;5080028;28;45325;-90
2021/08/30 02:52:58;;;;;;;;;12.67;9.67;;;;;17.96;66.14;101674.19;5061953;28;45440;-89
2021/08/30 02:55:24;;;;;;;;;10.67;9.00;;;;;17.91;66.27;101660.91;5080142;28;46648;-90
2021/08/30 02:57:50;;;;;;;;;12.00;10.00;;;;;17.98;66.25;101672.41;5061969;28;45410;-90
2021/08/30 03:00:17;;;;;;;;;11.00;10.00;;;;;17.92;66.47;101653.78;5062089;28;45249;-90
2021/08/30 03:02:47;;;;;;;;;9.67;9.33;;;;;17.95;66.39;101664.44;5079560;27;45245;-91
2021/08/30 03:05:14;;;;;;;;;11.67;9.33;;;;;17.94;66.42;101658.25;5080472;28;48285;-90
2021/08/30 03:07:40;;;;;;;;;9.00;8.00;;;;;17.93;66.28;101659.13;5083185;28;45236;-91
2021/08/30 03:10:06;;;;;;;;;11.00;10.67;;;;;17.91;66.18;101654.69;5082324;28;45310;-90
2021/08/30 03:12:40;;;;;;;;;11.33;9.00;;;;;17.90;66.28;101652.91;5078368;28;45217;-90
2021/08/30 03:15:07;;;;;;;;;12.33;8.67;;;;;17.89;66.43;101648.50;5077400;28;47601;-90
2021/08/30 03:17:35;;;;;;;;;11.33;9.00;;;;;17.94;66.36;101652.91;5077887;27;45328;-91
2021/08/30 03:20:02;;;;;;;;;13.00;10.00;;;;;17.99;66.47;101662.69;5060895;28;45469;-90
2021/08/30 03:22:30;;;;;;;;;12.00;10.00;;;;;17.98;66.61;101652.94;5077908;28;45499;-90
2021/08/30 03:24:58;;;;;;;;;11.00;9.33;;;;;17.90;66.50;101640.50;5078521;28;45376;-90
2021/08/30 03:27:24;;;;;;;;;12.00;10.00;;;;;18.08;66.40;101669.78;5060414;28;45490;-90
2021/08/30 03:29:51;;;;;;;;;12.33;10.33;;;;;17.93;66.52;101639.63;5079237;28;45504;-90
2021/08/30 03:32:18;;;;;;;;;11.00;10.00;;;;;17.93;66.45;101640.53;5077434;28;45578;-90
2021/08/30 03:34:44;;;;;;;;;13.00;9.00;;;;;17.98;66.88;101647.63;5078426;27;45365;-91
2021/08/30 03:37:11;;;;;;;;;8.67;8.67;;;;;17.97;66.82;101635.19;5060258;28;45318;-90
2021/08/30 03:39:37;;;;;;;;;15.00;13.00;;;;;18.00;66.89;101637.88;5060771;28;45317;-90
2021/08/30 03:42:05;;;;;;;;;9.67;8.00;;;;;18.13;67.36;101657.34;5079232;28;45370;-90
2021/08/30 03:44:34;;;;;;;;;12.67;11.33;;;;;18.17;67.27;101653.84;5078476;28;45469;-90
2021/08/30 03:47:00;;;;;;;;;10.67;9.00;;;;;18.15;67.41;101656.47;5088641;27;45522;-90
2021/08/30 03:49:28;;;;;;;;;13.00;10.33;;;;;18.06;67.41;101643.19;5080831;27;45299;-90
2021/08/30 03:51:57;;;;;;;;;12.00;12.00;;;;;18.12;67.32;101644.97;5071217;28;45479;-89
2021/08/30 03:54:23;;;;;;;;;12.00;10.33;;;;;18.10;67.46;101639.63;5083442;27;45367;-90
2021/08/30 03:56:49;;;;;;;;;10.33;9.67;;;;;18.18;67.21;101650.31;5079171;28;45516;-90
2021/08/30 03:59:17;;;;;;;;;10.67;10.67;;;;;18.17;67.18;101644.09;5079132;27;45250;-90
2021/08/30 04:01:46;;;;;;;;;13.00;10.67;;;;;18.17;67.19;101645.88;5077437;28;45342;-90
2021/08/30 04:04:19;;;;;;;;;13.33;10.00;;;;;18.22;67.15;101645.88;5077227;28;47961;-90
2021/08/30 04:06:45;;;;;;;;;12.00;12.00;;;;;18.14;67.22;101644.06;5078753;27;45286;-90
2021/08/30 04:09:14;;;;;;;;;11.00;11.00;;;;;18.12;67.08;101631.66;5060345;28;45471;-90
2021/08/30 04:11:40;;;;;;;;;14.33;11.67;;;;;18.08;67.12;101628.13;5094105;27;45255;-90
2021/08/30 04:14:06;;;;;;;;;12.33;11.33;;;;;18.09;67.23;101624.53;5100767;27;47784;-90
2021/08/30 04:16:31;;;;;;;;;13.67;13.67;;;;;18.16;67.09;101636.97;5078888;28;45323;-90
2021/08/30 04:18:57;;;;;;;;;13.00;11.67;;;;;18.15;67.08;101629.88;5077837;28;45270;-90
2021/08/30 04:21:23;;;;;;;;;14.33;12.67;;;;;18.26;66.73;101653.84;5079562;28;45306;-90
2021/08/30 04:23:48;;;;;;;;;13.67;11.67;;;;;18.27;67.17;101652.09;5066583;28;46971;-91
2021/08/30 04:26:13;;;;;;;;;18.00;12.33;;;;;18.30;66.93;101653.88;5086534;28;45402;-90
2021/08/30 04:28:39;;;;;;;;;15.00;13.00;;;;;18.32;67.02;101654.75;5068057;28;45440;-90
2021/08/30 04:31:04;;;;;;;;;12.67;10.67;;;;;18.29;67.11;101650.31;5085446;27;45601;-91
2021/08/30 04:33:30;;;;;;;;;14.33;14.00;;;;;18.30;66.84;101654.75;5092007;28;46067;-90
2021/08/30 04:35:55;;;;;;;;;12.00;12.00;;;;;18.34;66.99;101656.50;5084324;28;45266;-90
2021/08/30 04:38:21;;;;;;;;;14.67;14.00;;;;;18.36;66.94;101661.84;5102083;27;45305;-90
2021/08/30 04:40:46;;;;;;;;;15.00;14.67;;;;;18.27;66.96;101642.31;5104857;27;45331;-90
2021/08/30 04:43:12;;;;;;;;;13.33;11.67;;;;;18.34;67.06;101651.19;5097419;28;47264;-89
2021/08/30 04:45:38;;;;;;;;;16.00;14.00;;;;;18.33;66.83;101653.84;5102205;27;44922;-91
2021/08/30 04:48:07;;;;;;;;;17.67;16.00;;;;;18.22;66.88;101633.47;5092672;28;45386;-90
2021/08/30 04:50:33;;;;;;;;;15.33;14.00;;;;;18.37;67.10;101659.19;5095038;27;44744;-90
2021/08/30 04:52:59;;;;;;;;;16.67;15.33;;;;;18.39;66.99;101665.41;5095792;28;47284;-89
2021/08/30 04:55:24;;;;;;;;;18.00;17.67;;;;;18.29;67.38;101647.66;5091128;28;45335;-90
2021/08/30 04:57:49;;;;;;;;;18.67;16.00;;;;;18.32;67.34;101655.63;5084332;28;45386;-91
2021/08/30 05:00:15;;;;;;;;;16.00;16.00;;;;;18.26;67.48;101643.22;5083440;27;45258;-90
2021/08/30 05:02:41;;;;;;;;;18.33;17.00;;;;;18.31;67.60;101651.19;5080625;28;46955;-90
2021/08/30 05:05:07;;;;;;;;;19.67;17.00;;;;;18.34;67.50;101653.84;5085035;27;45756;-89
2021/08/30 05:07:32;;;;;;;;;19.00;17.00;;;;;18.33;67.49;101656.53;5085389;27;45274;-90
2021/08/30 05:09:58;;;;;;;;;23.00;17.33;;;;;18.31;67.40;101650.31;5089894;27;45477;-90
2021/08/30 05:12:26;;;;;;;;;20.67;18.33;;;;;18.38;67.44;101662.75;5097321;27;47367;-90
2021/08/30 05:14:53;;;;;;;;;22.67;19.00;;;;;18.46;67.67;101676.03;5079934;27;45496;-90
2021/08/30 05:17:19;;;;;;;;;19.67;18.00;;;;;18.40;67.67;101666.28;5096865;27;45555;-90
2021/08/30 05:19:44;;;;;;;;;19.00;17.00;;;;;18.30;67.48;101654.75;5081834;27;45455;-90
2021/08/30 05:22:12;;;;;;;;;17.00;16.33;;;;;18.48;67.96;101679.59;5079768;28;48785;-90
2021/08/30 05:24:38;;;;;;;;;22.00;20.33;;;;;18.49;67.68;101676.03;5096589;27;45956;-90
2021/08/30 05:27:03;;;;;;;;;19.33;18.00;;;;;18.45;67.51;101663.59;5079324;28;45365;-90
2021/08/30 05:29:29;;;;;;;;;21.00;19.33;;;;;18.47;67.45;101662.72;5081050;27;45240;-90
2021/08/30 05:31:56;;;;;;;;;22.33;19.00;;;;;18.44;67.23;101661.84;5079393;27;47383;-90
2021/08/30 05:34:22;;;;;;;;;19.67;18.00;;;;;18.39;67.24;101644.09;5079405;28;45260;-90
2021/08/30 05:36:47;;;;;;;;;23.33;20.67;;;;;18.42;67.09;101656.53;5079279;28;45428;-90
2021/08/30 05:39:13;;;;;;;;;20.00;18.33;;;;;18.38;67.18;101649.44;5079300;28;45575;-90
2021/08/30 05:41:48;;;;;;;;;25.33;23.00;;;;;18.45;67.31;101664.50;5082188;27;47192;-90
2021/08/30 05:44:14;;;;;;;;;24.00;21.00;;;;;18.42;67.46;101659.19;5101643;27;45477;-93
2021/08/30 05:46:39;;;;;;;;;22.00;22.00;;;;;18.57;67.12;101676.03;5102923;27;45667;-93
2021/08/30 05:49:05;;;;;;;;;20.67;18.00;;;;;18.58;67.15;101676.03;5104598;27;45404;-92
2021/08/30 05:51:30;;;;;;;;;23.67;20.00;;;;;18.63;67.08;101684.03;5103991;27;46229;-92
2021/08/30 05:53:55;;;;;;;;;25.00;23.00;;;;;18.57;67.02;101666.25;5116080;27;44737;-88
2021/08/30 05:56:21;;;;;;;;;19.67;18.67;;;;;18.54;66.96;101660.94;5117651;27;45298;-91
2021/08/30 05:58:46;;;;;;;;;25.00;20.00;;;;;18.59;66.96;101675.13;5116338;27;45443;-93
2021/08/30 06:01:11;;;;;;;;;27.33;23.67;;;;;18.69;66.74;101688.44;5106425;27;46042;-93
2021/08/30 06:03:37;;;;;;;;;27.00;21.33;;;;;18.70;66.84;101698.19;5084639;27;45781;-93
2021/08/30 06:06:03;;;;;;;;;24.00;22.67;;;;;18.68;66.90;101686.66;5102670;27;45456;-93
2021/08/30 06:08:29;;;;;;;;;26.00;23.00;;;;;18.69;66.95;101693.78;5103586;27;45329;-92
2021/08/30 06:10:56;;;;;;;;;28.33;24.33;;;;;18.60;66.77;101679.56;5102910;27;45587;-92
2021/08/30 06:13:23;;;;;;;;;24.67;21.67;;;;;18.60;66.76;101676.91;5103765;27;45244;-91
2021/08/30 06:15:49;;;;;;;;;26.67;26.00;;;;;18.66;66.78;101677.78;5102373;27;45165;-90
2021/08/30 06:18:14;;;;;;;;;27.00;26.00;;;;;18.73;66.82;101696.44;5103440;27;45319;-92
2021/08/30 06:20:40;;;;;;;;;30.67;24.00;;;;;18.75;66.51;101699.97;5103466;27;45870;-93
2021/08/30 06:23:10;;;;;;;;;29.25;28.50;;;;;18.77;66.75;101699.97;5109359;27;45236;-90
2021/08/30 06:25:35;;;;;;;;;30.33;26.33;;;;;18.67;67.07;101684.91;5114376;27;45190;-95
2021/08/30 06:28:01;;;;;;;;;27.67;24.00;;;;;18.71;66.50;101692.88;5107068;27;45260;-91
2021/08/30 06:30:27;;;;;;;;;33.67;26.67;;;;;18.80;66.89;101704.41;5090151;27;47500;-91
2021/08/30 06:32:52;;;;;;;;;27.00;23.67;;;;;18.78;66.52;101698.19;5116837;27;45219;-92
2021/08/30 06:35:18;;;;;;;;;27.67;27.67;;;;;18.80;66.79;101702.66;5114148;27;45275;-92
2021/08/30 06:37:44;;;;;;;;;29.25;25.50;;;;;18.79;66.70;101707.94;5102124;27;45298;-92
2021/08/30 06:40:11;;;;;;;;;25.00;24.67;;;;;18.83;66.71;101715.94;5102578;27;45401;-93
2021/08/30 06:42:36;;;;;;;;;25.33;22.33;;;;;18.83;66.67;101707.06;5101053;27;45307;-92
2021/08/30 06:45:03;;;;;;;;;24.67;22.33;;;;;18.82;66.68;101706.19;5100806;27;45359;-91
2021/08/30 06:47:29;;;;;;;;;26.00;24.33;;;;;18.90;67.38;101705.28;5081247;27;45324;-87
2021/08/30 06:49:54;;;;;;;;;29.00;26.67;;;;;18.89;66.36;101711.50;5099503;27;46237;-90
2021/08/30 06:52:20;;;;;;;;;25.67;24.33;;;;;18.81;66.67;101707.06;5101678;27;45252;-89
2021/08/30 06:54:47;;;;;;;;;24.33;21.33;;;;;18.90;66.70;101707.94;5085390;27;45292;-90
2021/08/30 06:57:12;;;;;;;;;31.33;27.00;;;;;18.86;66.81;101697.31;5082735;27;45498;-90
2021/08/30 06:59:38;;;;;;;;;30.00;25.67;;;;;18.82;66.98;101684.88;5099281;27;46416;-87
2021/08/30 07:02:03;;;;;;;;;30.00;24.67;;;;;18.99;67.13;101715.94;5101223;27;45387;-88
2021/08/30 07:04:29;;;;;;;;;29.33;24.67;;;;;18.91;67.28;101696.41;5104546;27;45306;-90
2021/08/30 07:06:54;;;;;;;;;31.00;24.00;;;;;18.89;66.97;101691.06;5115385;27;45339;-90
2021/08/30 07:09:20;;;;;;;;;27.00;24.33;;;;;18.98;66.38;101700.81;5101525;27;47091;-90
2021/08/30 07:11:47;;;;;;;;;34.33;26.67;;;;;18.95;66.65;101699.03;5091442;27;45484;-89
2021/08/30 07:14:13;;;;;;;;;30.33;27.00;;;;;19.03;66.38;101715.03;5083668;27;45448;-89
2021/08/30 07:16:39;;;;;;;;;24.67;23.67;;;;;19.05;66.41;101718.59;5082801;27;45359;-89
2021/08/30 07:19:04;;;;;;;;;28.00;24.00;;;;;19.01;66.28;101714.16;5081351;27;48303;-90
2021/08/30 07:21:30;;;;;;;;;23.33;22.00;;;;;19.06;66.07;101723.00;5081695;27;45410;-89
2021/08/30 07:23:56;;;;;;;;;23.33;21.67;;;;;19.09;66.04;101727.44;5081342;27;45346;-89
2021/08/30 07:26:21;;;;;;;;;24.50;21.00;;;;;19.14;66.09;101735.44;5099607;27;45227;-89
2021/08/30 07:28:47;;;;;;;;;27.67;22.33;;;;;19.06;65.94;101716.78;5099980;27;46044;-89
2021/08/30 07:31:14;;;;;;;;;26.00;23.67;;;;;19.01;65.68;101714.16;5098507;27;45331;-89
2021/08/30 07:33:40;;;;;;;;;22.33;20.67;;;;;19.10;65.50;101732.75;5099892;27;45409;-88
2021/08/30 07:36:06;;;;;;;;;21.00;21.00;;;;;19.15;65.52;101743.44;5081631;27;45453;-89
2021/08/30 07:38:31;;;;;;;;;25.33;21.33;;;;;19.07;66.11;101732.78;5081365;27;47343;-89
2021/08/30 07:40:57;;;;;;;;;23.00;22.00;;;;;19.12;66.15;101729.22;5099489;27;45449;-89
2021/08/30 07:43:23;;;;;;;;;21.67;20.67;;;;;19.26;65.52;101754.09;5080980;27;45395;-89
2021/08/30 07:45:48;;;;;;;;;25.67;20.67;;;;;19.26;65.48;101748.75;5099872;27;45459;-89
2021/08/30 07:48:14;;;;;;;;;26.67;22.33;;;;;19.18;65.56;101723.91;5097907;27;47189;-89
2021/08/30 07:50:39;;;;;;;;;23.33;18.33;;;;;19.38;65.16;101747.81;5099669;27;45406;-89
2021/08/30 07:53:05;;;;;;;;;23.67;20.33;;;;;19.43;65.14;101739.81;5099614;27;45438;-89
2021/08/30 07:55:35;;;;;;;;;23.67;19.00;;;;;19.50;65.39;101746.88;5082913;27;45318;-89
2021/08/30 07:58:00;;;;;;;;;27.67;19.67;;;;;19.55;65.07;101757.53;5085210;27;46174;-89
2021/08/30 08:00:26;;;;;;;;;20.00;18.33;;;;;19.50;64.63;101736.22;5086865;27;45379;-88
2021/08/30 08:02:52;;;;;;;;;24.67;21.00;;;;;19.53;64.68;101730.88;5108107;27;45395;-89
2021/08/30 08:05:18;;;;;;;;;25.00;21.33;;;;;19.59;64.60;101727.31;5084893;27;45519;-89
2021/08/30 08:07:43;;;;;;;;;25.33;22.33;;;;;19.83;64.35;101756.53;5101479;27;45613;-90
2021/08/30 08:10:09;;;;;;;;;19.00;17.00;;;;;19.81;64.62;101740.53;5101835;27;45304;-89
2021/08/30 08:12:35;;;;;;;;;20.00;17.33;;;;;19.93;64.43;101749.34;5087840;27;45255;-89
2021/08/30 08:15:00;;;;;;;;;19.00;18.33;;;;;19.90;63.89;101735.13;5104942;27;45460;-90
2021/08/30 08:17:26;;;;;;;;;18.67;16.67;;;;;19.94;63.65;101743.16;5104487;27;45314;-90
2021/08/30 08:19:51;;;;;;;;;23.33;18.00;;;;;19.98;63.61;101756.47;5086185;27;45863;-90
2021/08/30 08:22:17;;;;;;;;;21.00;19.67;;;;;19.97;63.91;101749.34;5120690;27;45335;-90
2021/08/30 08:24:42;;;;;;;;;16.67;16.00;;;;;20.08;63.04;101767.06;5086461;27;45346;-89
2021/08/30 08:27:08;;;;;;;;;22.00;17.00;;;;;19.98;63.00;101750.25;5104187;27;45353;-90
2021/08/30 08:29:33;;;;;;;;;18.00;15.00;;;;;20.09;62.72;101766.22;5086010;27;45303;-90
2021/08/30 08:31:58;;;;;;;;;19.67;16.67;;;;;19.97;62.54;101752.00;5103942;27;45153;-89
2021/08/30 08:34:24;;;;;;;;;20.33;16.67;;;;;20.13;63.07;101784.00;5086054;27;45448;-91
2021/08/30 08:36:49;;;;;;;;;22.67;17.33;;;;;20.04;63.15;101763.53;5084862;27;48129;-90
2021/08/30 08:39:15;;;;;;;;;19.33;17.33;;;;;20.07;62.76;101767.97;5104050;27;45339;-90
2021/08/30 08:41:40;;;;;;;;;20.33;19.00;;;;;20.13;62.31;101773.31;5084760;27;45386;-89
2021/08/30 08:44:07;;;;;;;;;22.33;19.67;;;;;20.06;62.68;101767.09;5086154;27;45484;-89
2021/08/30 08:46:36;;;;;;;;;20.00;17.67;;;;;20.17;61.78;101780.41;5105851;27;46427;-89
2021/08/30 08:49:02;;;;;;;;;19.33;17.00;;;;;20.13;62.45;101776.00;5085824;27;45340;-89
2021/08/30 08:51:29;;;;;;;;;19.67;17.67;;;;;20.13;62.10;101776.88;5084629;27;45540;-89
2021/08/30 08:53:54;;;;;;;;;17.67;16.67;;;;;20.16;62.81;101767.09;5102063;27;45394;-89
2021/08/30 08:56:24;;;;;;;;;19.33;15.33;;;;;20.20;61.68;101772.38;5086313;27;48513;-90
2021/08/30 08:58:50;;;;;;;;;18.67;18.67;;;;;20.18;61.63;101758.13;5105657;27;45437;-87
2021/08/30 09:01:25;;;;;;;;;19.67;15.67;;;;;20.34;61.05;101769.63;5108410;27;45212;-89
2021/08/30 09:03:53;;;;;;;;;21.33;16.67;;;;;20.38;60.92;101745.56;5088881;27;45505;-89
2021/08/30 09:06:39;;;;;;;;;17.67;13.67;;;;;20.48;60.55;101747.25;5090939;27;47413;-90
2021/08/30 09:09:08;;;;;;;;;15.33;14.33;;;;;20.65;60.69;101763.13;5109952;27;45393;-89
2021/08/30 09:11:56;;;;;;;;;16.33;13.67;;;;;20.74;59.71;101763.97;5118513;27;44792;-89
2021/08/30 09:14:24;;;;;;;;;15.67;13.67;;;;;20.70;59.59;101764.00;5114975;27;44734;-89
2021/08/30 09:17:03;;;;;;;;;20.33;15.67;;;;;20.90;58.95;101783.41;5104721;27;46289;-90
2021/08/30 09:19:29;;;;;;;;;15.33;14.67;;;;;20.88;59.57;101782.53;5107135;27;45525;-90
2021/08/30 09:21:54;;;;;;;;;14.33;13.00;;;;;20.96;59.65;101772.69;5088377;27;45250;-90
2021/08/30 09:24:22;;;;;;;;;16.00;15.00;;;;;21.06;59.35;101784.19;5106089;27;45230;-90
2021/08/30 09:27:00;;;;;;;;;14.67;13.33;;;;;21.11;59.58;101785.00;5115929;27;47890;-89
2021/08/30 09:29:28;;;;;;;;;16.00;14.67;;;;;21.15;59.08;101776.06;5097958;27;45343;-90
2021/08/30 09:31:57;;;;;;;;;18.00;14.33;;;;;21.22;58.77;101786.69;5096936;27;44786;-89
2021/08/30 09:34:29;;;;;;;;;20.00;17.33;;;;;21.11;58.32;101774.31;5114632;27;44763;-90
2021/08/30 09:36:56;;;;;;;;;13.67;12.00;;;;;21.19;58.64;101794.75;5115160;27;48815;-90
2021/08/30 09:39:21;;;;;;;;;18.00;16.33;;;;;21.10;58.64;101783.25;5115392;27;45231;-90
2021/08/30 09:41:47;;;;;;;;;16.00;14.33;;;;;21.05;58.56;101769.94;5099379;27;45452;-89
2021/08/30 09:44:13;;;;;;;;;18.67;15.33;;;;;21.16;58.64;101775.19;5113272;27;45239;-90
2021/08/30 09:46:38;;;;;;;;;14.67;14.67;;;;;21.15;58.49;101770.72;5098481;27;47338;-90
2021/08/30 09:49:08;;;;;;;;;16.00;15.00;;;;;21.33;58.49;101776.78;5099166;27;44938;-89
2021/08/30 09:51:38;;;;;;;;;17.00;15.33;;;;;21.45;58.99;101769.53;5096526;27;45316;-90
2021/08/30 09:54:05;;;;;;;;;16.00;14.67;;;;;21.66;58.83;101784.41;5110691;27;45279;-90
2021/08/30 09:56:36;;;;;;;;;16.67;16.67;;;;;21.74;57.00;101785.19;5109854;27;45426;-89
2021/08/30 09:59:04;;;;;;;;;12.67;11.67;;;;;21.80;57.24;101794.06;5111829;27;45206;-89
2021/08/30 10:01:30;;;;;;;;;15.67;12.33;;;;;21.66;56.94;101775.53;5114651;27;45247;-89
2021/08/30 10:03:56;;;;;;;;;14.67;13.33;;;;;21.64;56.99;101768.38;5095309;27;45365;-90
2021/08/30 10:06:22;;;;;;;;;14.67;12.00;;;;;21.67;56.58;101751.41;5112805;27;45340;-90
2021/08/30 10:08:48;;;;;;;;;20.33;15.33;;;;;21.79;56.08;101769.09;5110342;27;45344;-89
2021/08/30 10:11:13;;;;;;;;;15.00;13.67;;;;;21.79;56.24;101770.88;5105505;27;45394;-89
2021/08/30 10:13:41;;;;;;;;;18.33;14.00;;;;;21.82;55.99;101761.03;5105961;27;45313;-90
2021/08/30 10:16:07;;;;;;;;;17.33;14.00;;;;;21.84;56.49;101759.25;5109751;27;48207;-90
2021/08/30 10:18:33;;;;;;;;;18.33;15.33;;;;;21.90;56.22;101755.59;5091322;27;45737;-89
2021/08/30 10:20:58;;;;;;;;;15.33;14.33;;;;;22.11;55.76;101782.97;5102366;27;45554;-90
2021/08/30 10:23:36;;;;;;;;;14.00;14.00;;;;;22.12;55.50;101773.16;5085272;27;45487;-90
2021/08/30 10:26:04;;;;;;;;;12.00;12.00;;;;;22.14;55.84;101774.91;5083722;27;47265;-90
2021/08/30 10:28:40;;;;;;;;;16.00;14.33;;;;;22.10;55.90;101760.66;5102377;27;45203;-89
2021/08/30 10:31:20;;;;;;;;;13.67;12.67;;;;;22.41;56.05;101767.34;5085773;27;45249;-89
2021/08/30 10:33:52;;;;;;;;;14.00;13.00;;;;;22.47;55.41;101762.78;5088805;27;45402;-89
2021/08/30 10:36:20;;;;;;;;;17.00;15.33;;;;;22.56;55.31;101768.00;5109339;27;46587;-90
2021/08/30 10:39:08;;;;;;;;;13.00;13.00;;;;;22.48;54.46;101754.75;5115188;27;45331;-89
2021/08/30 10:41:40;;;;;;;;;18.00;15.67;;;;;22.59;55.40;101772.44;5109198;27;45393;-89
2021/08/30 10:44:08;;;;;;;;;16.33;14.00;;;;;22.63;55.62;101771.47;5105721;27;45488;-90
2021/08/30 10:46:38;;;;;;;;;14.33;14.00;;;;;22.62;55.00;101780.41;5102715;27;45414;-90
2021/08/30 10:49:19;;;;;;;;;13.33;11.00;;;;;22.51;54.27;101772.53;5102757;27;45158;-90
2021/08/30 10:51:46;;;;;;;;;13.00;12.00;;;;;22.46;53.98;101769.97;5084102;27;45362;-90
2021/08/30 10:54:14;;;;;;;;;16.00;13.00;;;;;22.49;53.98;101777.94;5102671;27;45200;-90
2021/08/30 10:56:41;;;;;;;;;13.00;12.00;;;;;22.48;54.17;101780.66;5084319;27;47283;-90
2021/08/30 10:59:07;;;;;;;;;14.00;13.00;;;;;22.32;53.96;101760.34;5083587;27;45386;-89
2021/08/30 11:01:34;;;;;;;;;12.33;12.00;;;;;22.30;53.72;101763.94;5100396;27;45326;-90
2021/08/30 11:04:00;;;;;;;;;13.00;13.00;;;;;22.58;54.44;101767.97;5105682;27;45303;-89
2021/08/30 11:06:26;;;;;;;;;14.67;13.00;;;;;22.94;54.78;101780.78;5114381;27;45192;-89
2021/08/30 11:08:52;;;;;;;;;13.67;13.00;;;;;23.23;54.37;101763.25;5098079;27;45698;-89
2021/08/30 11:11:18;;;;;;;;;15.00;11.33;;;;;23.61;53.27;101776.84;5099854;27;45601;-89
2021/08/30 11:14:05;;;;;;;;;15.33;14.33;;;;;24.02;52.77;101775.97;5099489;27;45500;-89
2021/08/30 11:16:33;;;;;;;;;12.00;11.33;;;;;24.20;52.13;101777.34;5117196;27;45753;-89
2021/08/30 11:19:03;;;;;;;;;11.00;10.00;;;;;24.27;51.42;101776.31;5120694;27;44757;-88
2021/08/30 11:21:29;;;;;;;;;11.67;11.67;;;;;24.35;51.01;101770.75;5123662;27;44711;-89